Reklama

Seznam meteostanic a jejich METAR

Vyhledat místa podle abecedy:
A B C D E F G H I J K L M N O P Q R S T U V W X Y Z

Filtrovat:

ID stanice:
a/nebo
Název místa (fulltext):
 
Místo (ID)Naposledy načteno 
Liberec (Liberec) 04.06.2020 08:00 UTC Zobrazit data
Místo: Liberec
Teplota: 19 °C (pocitová: 17.6 °C)
Vítr: 4 m/s z(e) 160°
Počasí: skoro zataženo
Dohlednost: 40 km
Zákl. oblačnosti: 3/8 3000 m;5/8 6000 m
Vlhkost: 52%
Luká (Luka) 04.06.2020 08:00 UTC Zobrazit data
Místo: Luká
Teplota: 17 °C (pocitová: 15.3 °C)
Vítr: 3 m/s z(e) 100°
Počasí: skoro zataženo
Dohlednost: 65 km
Zákl. oblačnosti: 1/8 780 m;5/8 6900 m
Vlhkost: 56%
Lysá Hora (Lysa Hora) 04.06.2020 08:00 UTC Zobrazit data
Místo: Lysá Hora
Teplota: 13 °C (pocitová: 10.8 °C)
Vítr: 2 m/s z(e) 0°
Počasí: oblačno
Dohlednost: 70 km
Zákl. oblačnosti: 1/8 480 m
Vlhkost: 63%
L'viv (UKLL) 13.12.2012 15:00 UTC  
La Palma (GCLA) 04.06.2020 08:00 UTC Zobrazit METAR
GCLA 040800Z VRB01KT 9999 FEW030 SCT050 22/18 Q1014
La Paz (SLLP) 04.06.2020 04:00 UTC Zobrazit METAR
SLLP 040400Z VRB02KT 9999 FEW005 SCT070 BKN200 01/M09 Q1037
Laayoune (GMML) 26.05.2020 07:33 UTC Zobrazit METAR
GMML 260733Z 03010KT 1000 BR OVC002 19/19 Q1016 BECMG 6000 NSW
Larnaca (LCLK) 04.06.2020 08:00 UTC Zobrazit METAR
LCLK 040800Z 16009KT 120V200 9999 SCT030 24/16 Q1014 NOSIG
Leipzig-Halle (EDDP) 04.06.2020 07:50 UTC Zobrazit METAR
EDDP 040750Z 15006KT 080V180 CAVOK 20/12 Q0995 NOSIG
Libreville (FOOL) 03.06.2020 21:00 UTC Zobrazit METAR
FOOL 032100Z 26008KT 230V290 9999 SCT012 28/25 Q1013 NOSIG
Liege (EBLG) 04.06.2020 07:50 UTC Zobrazit METAR
EBLG 040750Z 34006KT 300V010 6000 BKN008 13/11 Q0998 TEMPO 5000 BR
Liepaja (EVLA) 04.06.2020 07:50 UTC Zobrazit METAR
EVLA 040750Z AUTO 05006KT 010V090 9999 SCT031/// 17/10 Q1002
Lille (LFQQ) 04.06.2020 08:00 UTC Zobrazit METAR
LFQQ 040800Z AUTO 35010KT 9999 BKN025 BKN036 BKN090 15/09 Q1000 NOSIG
Lilongwe (FWLI) 04.06.2013 21:00 UTC Zobrazit METAR
FWLI 042100Z 05003KT CAVOK 14/11 Q1023 NOSIG
Lima - Callao (SPIM) 07.06.2019 22:00 UTC Zobrazit METAR
SPIM 072200Z /////KT 9999 BKN035 18/15 Q1015 RMK PP000
Limnos (LGLM) 04.06.2020 07:50 UTC Zobrazit METAR
LGLM 040750Z 18010KT 9999 SCT016 21/17 Q1011
Linz (LOWL) 04.06.2020 07:50 UTC Zobrazit METAR
LOWL 040750Z VRB01KT CAVOK 18/11 Q0999 NOSIG
Lisbon (LPPT) 04.06.2020 08:00 UTC Zobrazit METAR
LPPT 040800Z 31005KT 280V360 9999 FEW015 20/15 Q1011
Liverpool (EGGP) 04.06.2020 07:50 UTC Zobrazit METAR
EGGP 040750Z 32006KT 220V350 9999 -RA SCT012 BKN016 12/09 Q1005
Ljubljana (LJLJ) 04.06.2020 08:00 UTC Zobrazit METAR
LJLJ 040800Z VRB03KT 9999 FEW025 BKN040 19/13 Q1004 NOSIG
Lome (DXXX) 04.06.2020 08:00 UTC Zobrazit METAR
DXXX 040800Z 26007KT 220V290 9999 FEW012 28/25 Q1014 NOSIG
London (EGLL) 04.06.2020 07:50 UTC Zobrazit METAR
EGLL 040750Z AUTO 01007KT 330V050 9999 BKN019 OVC029 12/07 Q1004
Luanda (FNLU) 04.06.2020 08:00 UTC Zobrazit METAR
FNLU 040800Z 15006KT 9999 SCT021 27/23 Q1014 NOSIG
Lulea (ESPA) 04.06.2020 07:50 UTC Zobrazit METAR
ESPA 040750Z 08004KT 020V120 CAVOK 15/08 Q1010
Lusaka (FLLS) 13.01.2014 07:00 UTC Zobrazit METAR
FLLS 130700Z 36009KT CAVOK 25/20 Q1019
Luxembourg Airport (ELLX) 04.06.2020 07:50 UTC Zobrazit METAR
ELLX 040750Z 30006KT 9999 BKN007 BKN070 15/12 Q0997 NOSIG
Lyon (LFLL) 04.06.2020 08:00 UTC Zobrazit METAR
LFLL 040800Z AUTO 20008KT CAVOK 17/15 Q1000 TEMPO 4000 SHRA BKN008 BKN020TCU BECMG 30010KT
Reklama

Lunární kalendář

  • zítraFáze měsíce uplnek
  • 13.06.Fáze měsíce posl_ctvrt
  • 21.06.Fáze měsíce nov
  • 28.06.Fáze měsíce prv_ctvrt



Reklama
Meteodomečky

Počasí na Váš email

Emaily jsou bez reklamy a bez spamu



Odhlásit newsletter

Reklama


Další české internetové stránky (nejen) o počasí najdete v katalogu TOPlist - weby o počasí nebo vyhledejte na internetu, co jste tu na 🌞 Slunečnu ⛅ zatím nenašli:

Reklama